X  Luk Metar data     EKVJ Stauning Airport
Temperatur
29°C Temperatur
22°C Duggpunkt
66% Fugtighed



Vind
3 M/S
6 MPT
10 KM/T
5 KNOB



320°
NV
Nuværende forhold

Delvis skyet Delvis skyet
Tryk 1019.92 (hPa) - 30.12 (inHg)
Sigt 6.2 (mil) - 10 (km)
Lufthavn
Lufthavnskode EKVJ

Lokation: Stauning Airport
Afstand: 14 (km)

Metar:
EKVJ 111350Z 32005KT 9999 FEW040 29/22 Q1020

Tid: 08-11-2020 15:50 CEST